Time;durP1;ratioP1;P1;durP2;ratioP2;P2;SDS_P1;SDS_P2;PMS_P1;PMS_P2;Temp;Humidity;BMP_temperature;BMP_pressure;BME280_temperature;BME280_humidity;BME280_pressure;Samples;Min_cycle;Max_cycle;Signal;HPM_P1;HPM_P2
2023/08/25 00:02:15;;;;;;;28.50;15.30;;;;;;;;;;10158051;28;20035;-88
2023/08/25 00:07:16;;;;;;;31.80;15.90;;;;;;;;;;10155776;28;20044;-90
2023/08/25 00:12:17;;;;;;;34.58;17.13;;;;;;;;;;10157592;28;20064;-88
2023/08/25 00:17:19;;;;;;;35.75;16.77;;;;;;;;;;10157039;28;20243;-88
2023/08/25 00:22:20;;;;;;;35.65;16.45;;;;;;;;;;10156528;28;20763;-89
2023/08/25 00:27:21;;;;;;;31.15;15.27;;;;;;;;;;10156404;28;20154;-88
2023/08/25 00:32:22;;;;;;;28.35;14.13;;;;;;;;;;10156042;28;20142;-88
2023/08/25 00:37:23;;;;;;;31.52;15.77;;;;;;;;;;10155823;28;20127;-89
2023/08/25 00:42:24;;;;;;;33.22;15.10;;;;;;;;;;10156199;28;20047;-91
2023/08/25 00:47:25;;;;;;;26.23;14.48;;;;;;;;;;10155958;28;20595;-90
2023/08/25 00:52:26;;;;;;;36.08;15.10;;;;;;;;;;10155200;28;20046;-88
2023/08/25 00:57:27;;;;;;;29.33;13.38;;;;;;;;;;10155370;28;20036;-92
2023/08/25 01:02:29;;;;;;;28.35;14.35;;;;;;;;;;10155446;28;20389;-88
2023/08/25 01:07:30;;;;;;;26.27;14.60;;;;;;;;;;10155272;28;20395;-87
2023/08/25 01:12:36;;;;;;;27.85;13.98;;;;;;;;;;10155085;28;20040;-88
2023/08/25 01:17:37;;;;;;;;;;;;;;;;;;10155895;28;20273;-91
2023/08/25 01:22:47;;;;;;;22.80;12.18;;;;;;;;;;10156020;29;20527;-88
2023/08/25 01:27:51;;;;;;;22.33;13.07;;;;;;;;;;10154050;29;20121;-88
2023/08/25 01:32:52;;;;;;;21.10;11.70;;;;;;;;;;10155814;29;20052;-89
2023/08/25 01:37:57;;;;;;;21.70;12.70;;;;;;;;;;10154591;28;21046;-88
2023/08/25 01:42:59;;;;;;;20.98;11.00;;;;;;;;;;10154374;28;20032;-88
2023/08/25 01:48:01;;;;;;;18.60;11.20;;;;;;;;;;10155058;28;20044;-87
2023/08/25 01:53:03;;;;;;;20.60;12.10;;;;;;;;;;10153872;28;20040;-90
2023/08/25 01:58:04;;;;;;;18.20;11.13;;;;;;;;;;10147260;29;20067;-89
2023/08/25 02:03:05;;;;;;;17.00;11.15;;;;;;;;;;10153933;28;20036;-91
2023/08/25 02:08:06;;;;;;;19.25;11.05;;;;;;;;;;10153736;28;20472;-88
2023/08/25 02:13:07;;;;;;;14.70;9.73;;;;;;;;;;10154221;29;20040;-87
2023/08/25 02:18:08;;;;;;;16.85;10.20;;;;;;;;;;10154514;29;20058;-88
2023/08/25 02:23:09;;;;;;;14.80;10.02;;;;;;;;;;10153735;28;20036;-90
2023/08/25 02:28:10;;;;;;;17.55;9.48;;;;;;;;;;10153056;28;20087;-88
2023/08/25 02:33:11;;;;;;;17.30;10.85;;;;;;;;;;10152867;29;20040;-88
2023/08/25 02:38:12;;;;;;;19.85;12.32;;;;;;;;;;10159662;28;20036;-88
2023/08/25 02:43:13;;;;;;;17.50;11.63;;;;;;;;;;10159412;29;20040;-88
2023/08/25 02:48:14;;;;;;;20.58;11.65;;;;;;;;;;10159265;28;20068;-87
2023/08/25 02:53:15;;;;;;;20.52;11.80;;;;;;;;;;10159087;28;20059;-87
2023/08/25 02:58:16;;;;;;;18.92;12.07;;;;;;;;;;10159615;28;20032;-88
2023/08/25 03:03:17;;;;;;;17.75;10.90;;;;;;;;;;10159835;28;20028;-88
2023/08/25 03:08:20;;;;;;;17.40;11.55;;;;;;;;;;10158435;28;20483;-90
2023/08/25 03:13:21;;;;;;;17.15;11.80;;;;;;;;;;10158996;28;20123;-90
2023/08/25 03:18:23;;;;;;;19.55;11.75;;;;;;;;;;10158815;28;20075;-87
2023/08/25 03:23:24;;;;;;;20.65;13.35;;;;;;;;;;10159644;29;20032;-89
2023/08/25 03:28:25;;;;;;;22.70;12.98;;;;;;;;;;10157424;28;20500;-88
2023/08/25 03:33:26;;;;;;;22.63;13.60;;;;;;;;;;10158547;28;20093;-89
2023/08/25 03:38:27;;;;;;;18.52;12.18;;;;;;;;;;10157949;28;20488;-91
2023/08/25 03:43:28;;;;;;;20.55;12.27;;;;;;;;;;10156389;28;20044;-88
2023/08/25 03:48:29;;;;;;;18.27;12.43;;;;;;;;;;10157631;29;20488;-88
2023/08/25 03:53:30;;;;;;;18.33;12.70;;;;;;;;;;10156746;28;20047;-88
2023/08/25 03:58:31;;;;;;;18.58;11.18;;;;;;;;;;10157203;28;20041;-87
2023/08/25 04:03:33;;;;;;;19.10;11.70;;;;;;;;;;10157378;28;20500;-88
2023/08/25 04:08:34;;;;;;;20.63;11.85;;;;;;;;;;10156113;28;20392;-88
2023/08/25 04:13:35;;;;;;;18.05;12.00;;;;;;;;;;10157179;28;20052;-88
2023/08/25 04:18:36;;;;;;;20.80;12.85;;;;;;;;;;10155749;28;20440;-89
2023/08/25 04:23:37;;;;;;;16.50;11.32;;;;;;;;;;10156634;28;20131;-89
2023/08/25 04:28:38;;;;;;;19.15;10.35;;;;;;;;;;10154219;28;20060;-87
2023/08/25 04:33:39;;;;;;;16.42;11.32;;;;;;;;;;10173286;28;20044;-87
2023/08/25 04:38:40;;;;;;;13.05;10.00;;;;;;;;;;10144720;28;20041;-88
2023/08/25 04:43:41;;;;;;;14.68;9.73;;;;;;;;;;10141878;28;20059;-87
2023/08/25 04:48:46;;;;;;;14.70;10.38;;;;;;;;;;10148114;28;20880;-90
2023/08/25 04:53:47;;;;;;;12.70;9.30;;;;;;;;;;10156211;28;20118;-90
2023/08/25 04:58:48;;;;;;;14.10;9.20;;;;;;;;;;10145972;28;20028;-91
2023/08/25 05:03:49;;;;;;;14.10;8.88;;;;;;;;;;10144267;28;20119;-89
2023/08/25 05:08:50;;;;;;;9.98;8.05;;;;;;;;;;10150665;28;20053;-89
2023/08/25 05:13:52;;;;;;;11.73;7.75;;;;;;;;;;10154507;28;20557;-89
2023/08/25 05:18:53;;;;;;;15.50;8.77;;;;;;;;;;10150321;28;20495;-88
2023/08/25 05:24:14;;;;;;;14.80;8.65;;;;;;;;;;10148791;28;20400;-90
2023/08/25 05:29:15;;;;;;;13.38;9.13;;;;;;;;;;10137503;28;20060;-91
2023/08/25 05:34:16;;;;;;;18.17;9.88;;;;;;;;;;10140160;28;20036;-89
2023/08/25 05:39:20;;;;;;;14.40;8.73;;;;;;;;;;10147115;28;20117;-87
2023/08/25 05:44:21;;;;;;;13.55;9.10;;;;;;;;;;10139472;28;20115;-89
2023/08/25 05:49:22;;;;;;;17.73;9.07;;;;;;;;;;10144659;28;20036;-89
2023/08/25 05:54:23;;;;;;;13.18;8.32;;;;;;;;;;10139971;28;20050;-87
2023/08/25 05:59:27;;;;;;;10.52;8.20;;;;;;;;;;10146520;28;20036;-90
2023/08/25 06:04:29;;;;;;;14.40;8.85;;;;;;;;;;10141925;28;20111;-89
2023/08/25 06:09:30;;;;;;;11.65;7.38;;;;;;;;;;10155555;28;20091;-91
2023/08/25 06:14:31;;;;;;;11.00;7.55;;;;;;;;;;10145968;28;20095;-88
2023/08/25 06:19:33;;;;;;;11.75;7.70;;;;;;;;;;10148790;28;20056;-89
2023/08/25 06:24:34;;;;;;;11.23;7.85;;;;;;;;;;10142753;28;20044;-89
2023/08/25 06:29:35;;;;;;;10.85;7.38;;;;;;;;;;10149956;28;20083;-87
2023/08/25 06:34:36;;;;;;;11.48;7.35;;;;;;;;;;10202225;23;20519;-88
2023/08/25 06:39:37;;;;;;;13.82;7.82;;;;;;;;;;10223059;28;20070;-88
2023/08/25 06:44:38;;;;;;;9.82;6.90;;;;;;;;;;10221559;28;20065;-87
2023/08/25 06:49:39;;;;;;;10.15;7.35;;;;;;;;;;10243381;28;20047;-88
2023/08/25 06:54:40;;;;;;;10.52;7.63;;;;;;;;;;10265161;28;20042;-87
2023/08/25 06:59:41;;;;;;;11.10;7.57;;;;;;;;;;10221399;28;20090;-88
2023/08/25 07:04:42;;;;;;;17.00;8.38;;;;;;;;;;10327354;28;20032;-87
2023/08/25 07:09:43;;;;;;;15.40;8.15;;;;;;;;;;10333883;28;20046;-88
2023/08/25 07:14:44;;;;;;;22.77;13.25;;;;;;;;;;10225469;28;20032;-86
2023/08/25 07:19:45;;;;;;;27.27;11.65;;;;;;;;;;10316582;28;20504;-86
2023/08/25 07:24:50;;;;;;;17.85;8.80;;;;;;;;;;10222379;28;20422;-86
2023/08/25 07:29:54;;;;;;;18.10;7.93;;;;;;;;;;10290419;28;20039;-87
2023/08/25 07:34:55;;;;;;;18.23;7.50;;;;;;;;;;10415862;28;20056;-86
2023/08/25 07:39:57;;;;;;;15.02;7.57;;;;;;;;;;10487331;28;20100;-88
2023/08/25 07:44:58;;;;;;;15.52;7.63;;;;;;;;;;10474654;28;20727;-86
2023/08/25 07:49:59;;;;;;;14.18;7.80;;;;;;;;;;10478266;28;20119;-88
2023/08/25 07:55:00;;;;;;;13.23;7.57;;;;;;;;;;10454292;28;20036;-88
2023/08/25 08:00:01;;;;;;;10.68;7.05;;;;;;;;;;10479815;28;20028;-86
2023/08/25 08:05:02;;;;;;;12.25;7.22;;;;;;;;;;10464078;28;20025;-86
2023/08/25 08:10:03;;;;;;;11.43;7.25;;;;;;;;;;10460692;28;20039;-87
2023/08/25 08:15:05;;;;;;;11.23;7.03;;;;;;;;;;10481349;28;20039;-86
2023/08/25 08:20:09;;;;;;;15.23;7.57;;;;;;;;;;10457106;28;20067;-87
2023/08/25 08:25:11;;;;;;;14.30;6.90;;;;;;;;;;10471470;28;20024;-87
2023/08/25 08:30:13;;;;;;;13.82;7.13;;;;;;;;;;10450085;28;20439;-87
2023/08/25 08:35:14;;;;;;;11.43;6.60;;;;;;;;;;10344611;28;20066;-86
2023/08/25 08:40:15;;;;;;;12.25;6.88;;;;;;;;;;10271366;28;20027;-87
2023/08/25 08:45:20;;;;;;;9.27;7.25;;;;;;;;;;10331638;28;20379;-88
2023/08/25 08:50:21;;;;;;;10.20;6.82;;;;;;;;;;10279105;28;20368;-87
2023/08/25 08:55:23;;;;;;;14.38;7.20;;;;;;;;;;10327503;28;20501;-88
2023/08/25 09:00:24;;;;;;;9.73;7.43;;;;;;;;;;10347277;28;20074;-86
2023/08/25 09:05:29;;;;;;;10.90;7.60;;;;;;;;;;10258329;28;20031;-86
2023/08/25 09:10:30;;;;;;;12.75;8.20;;;;;;;;;;10268291;28;20494;-86
2023/08/25 09:15:33;;;;;;;10.90;7.95;;;;;;;;;;10260455;28;20031;-87
2023/08/25 09:20:36;;;;;;;10.13;8.02;;;;;;;;;;10256383;28;20062;-88
2023/08/25 09:25:40;;;;;;;10.48;8.27;;;;;;;;;;10311270;28;20039;-88
2023/08/25 09:30:44;;;;;;;12.18;7.80;;;;;;;;;;10271424;28;20128;-87
2023/08/25 09:35:45;;;;;;;12.07;8.95;;;;;;;;;;10344767;28;20054;-86
2023/08/25 09:40:47;;;;;;;10.35;7.88;;;;;;;;;;10246801;28;20031;-87
2023/08/25 09:45:48;;;;;;;11.40;7.78;;;;;;;;;;10287937;28;20092;-87
2023/08/25 09:50:51;;;;;;;11.93;7.68;;;;;;;;;;10350730;28;20043;-86
2023/08/25 09:56:00;;;;;;;9.73;8.23;;;;;;;;;;10260342;28;20774;-90
2023/08/25 10:01:01;;;;;;;9.20;7.45;;;;;;;;;;10272258;28;20035;-86
2023/08/25 10:06:02;;;;;;;10.10;7.43;;;;;;;;;;10336636;28;20039;-87
2023/08/25 10:11:04;;;;;;;9.77;7.80;;;;;;;;;;10284559;23;20066;-87
2023/08/25 10:16:06;;;;;;;12.77;7.30;;;;;;;;;;10324116;28;20033;-88
2023/08/25 10:21:08;;;;;;;10.38;7.07;;;;;;;;;;10331321;28;20486;-86
2023/08/25 10:26:09;;;;;;;11.30;7.60;;;;;;;;;;10321064;28;20422;-88
2023/08/25 10:31:11;;;;;;;10.75;7.70;;;;;;;;;;10319913;28;20038;-86
2023/08/25 10:36:14;;;;;;;8.93;7.03;;;;;;;;;;10308642;28;20032;-86
2023/08/25 10:41:20;;;;;;;11.93;7.90;;;;;;;;;;10321567;28;20583;-86
2023/08/25 10:46:22;;;;;;;9.90;6.80;;;;;;;;;;10329653;28;20032;-87
2023/08/25 10:51:27;;;;;;;7.05;6.18;;;;;;;;;;10336989;28;20507;-87
2023/08/25 10:56:28;;;;;;;11.70;7.47;;;;;;;;;;10318068;28;20079;-86
2023/08/25 11:01:49;;;;;;;8.93;6.63;;;;;;;;;;10323627;23;20553;-87
2023/08/25 11:06:51;;;;;;;10.60;7.03;;;;;;;;;;10265515;28;20513;-88
2023/08/25 11:11:56;;;;;;;8.65;6.45;;;;;;;;;;10277949;28;20093;-88
2023/08/25 11:17:02;;;;;;;7.90;6.30;;;;;;;;;;10290663;28;20035;-90
2023/08/25 11:22:04;;;;;;;8.48;5.63;;;;;;;;;;10280634;28;20232;-88
2023/08/25 11:27:14;;;;;;;8.23;6.63;;;;;;;;;;10295734;28;20045;-92
2023/08/25 11:32:16;;;;;;;10.80;6.40;;;;;;;;;;10264460;28;20044;-88
2023/08/25 11:37:17;;;;;;;7.10;6.40;;;;;;;;;;10284053;28;20037;-88
2023/08/25 11:42:22;;;;;;;9.82;6.07;;;;;;;;;;10289771;23;20066;-90
2023/08/25 11:47:23;;;;;;;9.32;6.35;;;;;;;;;;10228713;28;20032;-92
2023/08/25 11:52:24;;;;;;;8.45;5.55;;;;;;;;;;10229496;28;20501;-89
2023/08/25 11:57:38;;;;;;;6.85;5.72;;;;;;;;;;10223057;28;20042;-89
2023/08/25 12:02:39;;;;;;;11.23;5.72;;;;;;;;;;10223303;28;20042;-88
2023/08/25 12:07:41;;;;;;;8.65;5.53;;;;;;;;;;10205678;28;20560;-88
2023/08/25 12:12:42;;;;;;;9.98;4.95;;;;;;;;;;10196983;28;20090;-89
2023/08/25 12:17:46;;;;;;;7.50;5.82;;;;;;;;;;10182088;28;20054;-89
2023/08/25 12:23:00;;;;;;;8.82;5.68;;;;;;;;;;10184368;28;20044;-88
2023/08/25 12:28:01;;;;;;;7.40;5.30;;;;;;;;;;10195925;28;20111;-87
2023/08/25 12:33:03;;;;;;;9.27;5.65;;;;;;;;;;10201733;28;20093;-88
2023/08/25 12:38:05;;;;;;;9.17;5.50;;;;;;;;;;10186052;28;20763;-86
2023/08/25 12:43:06;;;;;;;8.35;4.25;;;;;;;;;;10201341;28;20047;-85
2023/08/25 12:48:08;;;;;;;7.03;4.65;;;;;;;;;;10267040;28;20050;-86
2023/08/25 12:53:09;;;;;;;9.57;5.18;;;;;;;;;;10244041;28;20034;-86
2023/08/25 12:58:10;;;;;;;5.63;4.63;;;;;;;;;;10243092;28;20027;-87
2023/08/25 13:03:11;;;;;;;8.25;4.82;;;;;;;;;;10246021;28;20368;-86
2023/08/25 13:08:12;;;;;;;7.43;4.97;;;;;;;;;;10225848;28;20108;-87
2023/08/25 13:13:13;;;;;;;5.88;4.95;;;;;;;;;;10225593;28;20035;-88
2023/08/25 13:18:14;;;;;;;12.50;5.20;;;;;;;;;;10249453;28;20027;-86
2023/08/25 13:23:15;;;;;;;9.18;4.88;;;;;;;;;;10247531;28;20027;-86
2023/08/25 13:28:16;;;;;;;6.38;4.78;;;;;;;;;;10246149;28;20027;-87
2023/08/25 13:33:18;;;;;;;8.32;5.07;;;;;;;;;;10250678;28;20870;-87
2023/08/25 13:38:19;;;;;;;11.32;5.60;;;;;;;;;;10235126;28;20129;-86
2023/08/25 13:43:20;;;;;;;8.52;5.53;;;;;;;;;;10248891;28;20058;-84
2023/08/25 13:48:21;;;;;;;10.20;6.22;;;;;;;;;;10263654;28;20061;-86
2023/08/25 13:53:22;;;;;;;7.38;5.63;;;;;;;;;;10236923;28;20035;-86
2023/08/25 13:58:23;;;;;;;9.18;5.35;;;;;;;;;;10259925;28;20129;-86
2023/08/25 14:03:25;;;;;;;7.20;5.00;;;;;;;;;;10247044;28;20035;-84
2023/08/25 14:08:26;;;;;;;8.20;4.55;;;;;;;;;;10242836;28;20512;-89
2023/08/25 14:13:27;;;;;;;6.15;4.40;;;;;;;;;;10222723;28;20074;-87
2023/08/25 14:18:28;;;;;;;5.15;4.05;;;;;;;;;;10258260;28;20481;-87
2023/08/25 14:23:29;;;;;;;5.50;4.20;;;;;;;;;;10249645;23;20063;-88
2023/08/25 14:28:30;;;;;;;7.15;4.07;;;;;;;;;;10270498;28;20024;-86
2023/08/25 14:33:31;;;;;;;5.07;4.00;;;;;;;;;;10335730;28;20712;-87
2023/08/25 14:38:43;;;;;;;9.40;3.78;;;;;;;;;;10275837;28;20518;-86
2023/08/25 14:43:45;;;;;;;5.40;3.88;;;;;;;;;;10267216;28;20043;-85
2023/08/25 14:48:46;;;;;;;5.18;4.03;;;;;;;;;;10268675;28;20415;-85
2023/08/25 14:53:47;;;;;;;7.43;3.90;;;;;;;;;;10283833;28;20066;-86
2023/08/25 14:58:48;;;;;;;6.93;3.50;;;;;;;;;;10279906;28;20121;-88
2023/08/25 15:03:49;;;;;;;4.55;3.72;;;;;;;;;;10271288;28;20550;-88
2023/08/25 15:08:53;;;;;;;5.97;3.90;;;;;;;;;;10326333;23;20534;-87
2023/08/25 15:25:13;;;;;;;8.40;4.43;;;;;;;;;;10351456;28;20094;-87
2023/08/25 15:30:53;;;;;;;4.43;3.58;;;;;;;;;;10339682;28;20156;-88
2023/08/25 15:35:54;;;;;;;7.00;4.45;;;;;;;;;;10326358;28;20064;-89
2023/08/25 15:40:56;;;;;;;7.63;4.30;;;;;;;;;;10345172;28;20030;-87
2023/08/25 15:45:57;;;;;;;6.75;4.50;;;;;;;;;;10358375;28;20147;-89
2023/08/25 15:50:58;;;;;;;5.22;4.20;;;;;;;;;;10358057;28;20040;-88
2023/08/25 15:56:18;;;;;;;6.93;4.05;;;;;;;;;;10341174;28;20082;-87
2023/08/25 16:01:19;;;;;;;6.25;3.60;;;;;;;;;;10352092;28;20493;-88
2023/08/25 16:06:20;;;;;;;8.57;3.97;;;;;;;;;;10321405;28;20038;-88
2023/08/25 16:11:21;;;;;;;8.25;5.18;;;;;;;;;;10373427;28;20045;-87
2023/08/25 16:16:22;;;;;;;10.68;9.57;;;;;;;;;;10371810;28;20036;-88
2023/08/25 16:21:27;;;;;;;6.10;3.78;;;;;;;;;;10373185;28;20029;-86
2023/08/25 16:26:29;;;;;;;11.93;3.95;;;;;;;;;;10376884;28;20025;-87
2023/08/25 16:31:30;;;;;;;9.30;5.03;;;;;;;;;;10379757;28;20042;-87
2023/08/25 16:36:32;;;;;;;18.90;8.82;;;;;;;;;;10352761;28;20026;-88
2023/08/25 16:41:33;;;;;;;17.60;9.15;;;;;;;;;;10377266;28;20500;-87
2023/08/25 16:46:34;;;;;;;18.98;9.55;;;;;;;;;;10396417;28;20113;-88
2023/08/25 16:51:35;;;;;;;20.40;9.25;;;;;;;;;;10379594;28;20091;-86
2023/08/25 16:56:36;;;;;;;13.85;7.35;;;;;;;;;;10377951;28;20025;-88
2023/08/25 17:01:37;;;;;;;8.82;4.60;;;;;;;;;;10383519;28;20590;-88
2023/08/25 17:06:39;;;;;;;6.50;3.78;;;;;;;;;;10379490;28;20054;-87
2023/08/25 17:11:40;;;;;;;6.25;3.80;;;;;;;;;;10372153;28;20079;-87
2023/08/25 17:16:43;;;;;;;11.60;6.35;;;;;;;;;;10396756;28;20025;-87
2023/08/25 17:22:05;;;;;;;23.60;11.98;;;;;;;;;;10377716;28;20473;-86
2023/08/25 17:27:07;;;;;;;33.60;16.42;;;;;;;;;;10346808;28;20033;-87
2023/08/25 17:32:08;;;;;;;28.30;14.68;;;;;;;;;;10394724;28;20120;-87
2023/08/25 17:37:29;;;;;;;26.58;18.58;;;;;;;;;;10378037;28;20110;-87
2023/08/25 17:53:50;;;;;;;12.68;7.13;;;;;;;;;;10385983;28;20778;-88
2023/08/25 18:04:33;;;;;;;7.75;5.22;;;;;;;;;;10397234;28;20025;-88
2023/08/25 18:09:34;;;;;;;7.57;5.50;;;;;;;;;;10373711;28;20057;-88
2023/08/25 18:14:35;;;;;;;10.05;5.90;;;;;;;;;;10384828;28;20037;-88
2023/08/25 18:19:58;;;;;;;10.10;5.65;;;;;;;;;;10384743;28;20026;-88
2023/08/25 18:24:59;;;;;;;8.43;5.18;;;;;;;;;;10350170;28;20740;-87
2023/08/25 18:35:42;;;;;;;8.13;4.60;;;;;;;;;;10400225;28;20038;-87
2023/08/25 18:40:43;;;;;;;8.48;5.20;;;;;;;;;;10401370;28;20828;-87
2023/08/25 18:45:45;;;;;;;8.45;5.53;;;;;;;;;;10375384;28;20745;-87
2023/08/25 18:50:46;;;;;;;11.73;5.63;;;;;;;;;;10365978;28;20605;-87
2023/08/25 18:55:49;;;;;;;14.48;5.70;;;;;;;;;;10353853;28;20036;-87
2023/08/25 19:06:35;;;;;;;10.45;6.43;;;;;;;;;;10377661;28;20033;-88
2023/08/25 19:11:36;;;;;;;11.68;7.40;;;;;;;;;;10381874;28;20093;-88
2023/08/25 19:16:37;;;;;;;15.50;9.32;;;;;;;;;;10365678;28;20081;-88
2023/08/25 19:21:38;;;;;;;11.07;7.70;;;;;;;;;;10373377;28;20056;-87
2023/08/25 19:26:39;;;;;;;14.45;7.40;;;;;;;;;;10377848;28;20159;-85
2023/08/25 19:31:40;;;;;;;12.93;6.78;;;;;;;;;;10381845;28;20041;-86
2023/08/25 19:36:41;;;;;;;10.23;6.32;;;;;;;;;;10379067;28;20468;-86
2023/08/25 19:41:42;;;;;;;10.10;6.45;;;;;;;;;;10392903;28;20033;-87
2023/08/25 19:46:43;;;;;;;10.80;6.68;;;;;;;;;;10374513;28;20026;-85
2023/08/25 19:51:45;;;;;;;8.82;6.75;;;;;;;;;;10354211;28;20046;-87
2023/08/25 19:56:46;;;;;;;11.80;6.15;;;;;;;;;;10374268;28;20044;-86
2023/08/25 20:01:47;;;;;;;11.23;6.15;;;;;;;;;;10377464;28;20040;-90
2023/08/25 20:06:48;;;;;;;11.52;6.63;;;;;;;;;;10371391;28;20049;-87
2023/08/25 20:11:49;;;;;;;10.20;6.47;;;;;;;;;;10374117;28;20046;-88
2023/08/25 20:16:50;;;;;;;11.55;6.18;;;;;;;;;;10367198;28;20022;-90
2023/08/25 20:21:52;;;;;;;9.93;6.35;;;;;;;;;;10365358;28;20488;-89
2023/08/25 20:26:53;;;;;;;9.77;6.05;;;;;;;;;;10391359;28;20134;-87
2023/08/25 20:31:54;;;;;;;10.07;5.72;;;;;;;;;;10381278;28;20044;-86
2023/08/25 20:36:55;;;;;;;10.48;5.80;;;;;;;;;;10384884;28;20021;-87
2023/08/25 20:41:59;;;;;;;8.48;4.70;;;;;;;;;;10357101;28;20032;-86
2023/08/25 20:47:00;;;;;;;10.32;6.00;;;;;;;;;;10371400;28;20090;-87
2023/08/25 20:52:01;;;;;;;8.15;5.32;;;;;;;;;;10359235;28;20045;-89
2023/08/25 20:57:06;;;;;;;9.50;4.90;;;;;;;;;;10372260;28;20030;-88
2023/08/25 21:02:07;;;;;;;12.30;5.63;;;;;;;;;;10374172;28;20030;-89
2023/08/25 21:07:11;;;;;;;7.10;4.88;;;;;;;;;;10382838;28;20439;-90
2023/08/25 21:12:12;;;;;;;7.47;4.80;;;;;;;;;;10359050;28;20737;-88
2023/08/25 21:17:14;;;;;;;12.65;5.78;;;;;;;;;;10369005;28;20033;-88
2023/08/25 21:22:15;;;;;;;7.97;5.60;;;;;;;;;;10354578;28;20695;-92
2023/08/25 21:27:16;;;;;;;7.80;5.90;;;;;;;;;;10387661;28;20033;-89
2023/08/25 21:32:17;;;;;;;9.23;5.38;;;;;;;;;;10378149;28;20037;-91
2023/08/25 21:37:18;;;;;;;13.82;6.82;;;;;;;;;;10393387;28;20034;-91
2023/08/25 21:42:19;;;;;;;15.10;5.93;;;;;;;;;;10364129;28;20112;-89
2023/08/25 21:47:21;;;;;;;9.15;5.35;;;;;;;;;;10390032;28;20037;-89
2023/08/25 21:52:22;;;;;;;8.93;5.45;;;;;;;;;;10371761;28;20045;-89
2023/08/25 21:57:23;;;;;;;11.40;6.68;;;;;;;;;;10370995;28;20037;-88
2023/08/25 22:02:24;;;;;;;10.25;7.40;;;;;;;;;;10373399;28;20034;-89
2023/08/25 22:13:30;;;;;;;11.20;6.88;;;;;;;;;;10346696;28;20095;-88
2023/08/25 22:18:31;;;;;;;21.25;10.32;;;;;;;;;;10344216;28;20033;-89
2023/08/25 22:23:32;;;;;;;25.38;13.82;;;;;;;;;;10343507;28;20038;-89
2023/08/25 22:28:33;;;;;;;18.58;12.65;;;;;;;;;;10343630;28;20106;-89
2023/08/25 22:33:34;;;;;;;17.20;12.98;;;;;;;;;;10337100;28;20450;-89
2023/08/25 22:38:35;;;;;;;17.33;11.23;;;;;;;;;;10344440;28;20030;-89
2023/08/25 22:43:36;;;;;;;19.95;14.15;;;;;;;;;;10340722;28;20052;-90
2023/08/25 22:48:37;;;;;;;18.83;12.50;;;;;;;;;;10306989;28;20149;-90
2023/08/25 22:53:38;;;;;;;16.02;10.25;;;;;;;;;;10328374;28;20045;-91
2023/08/25 22:58:39;;;;;;;15.57;9.63;;;;;;;;;;10328486;28;20037;-91
2023/08/25 23:03:40;;;;;;;16.77;10.02;;;;;;;;;;10333568;28;20046;-89
2023/08/25 23:08:41;;;;;;;15.20;9.82;;;;;;;;;;10341730;28;20065;-90
2023/08/25 23:13:42;;;;;;;17.20;10.48;;;;;;;;;;10369192;28;20110;-89
2023/08/25 23:18:43;;;;;;;14.98;10.95;;;;;;;;;;10382904;28;20538;-88
2023/08/25 23:23:45;;;;;;;18.15;11.95;;;;;;;;;;10380150;28;20063;-89
2023/08/25 23:28:46;;;;;;;16.52;10.80;;;;;;;;;;10370524;28;20042;-90
2023/08/25 23:33:47;;;;;;;19.55;10.85;;;;;;;;;;10376825;28;20042;-89
2023/08/25 23:38:48;;;;;;;15.05;10.35;;;;;;;;;;10367214;28;20504;-88
2023/08/25 23:43:49;;;;;;;14.88;10.23;;;;;;;;;;10381740;28;20037;-91
2023/08/25 23:48:50;;;;;;;15.70;9.85;;;;;;;;;;10381721;28;20030;-88
2023/08/25 23:53:51;;;;;;;13.30;9.73;;;;;;;;;;10388355;28;20048;-89
2023/08/25 23:58:52;;;;;;;14.02;9.70;;;;;;;;;;10378247;28;20041;-90
